sensor_id;sensor_type;location;lat;lon;timestamp;P1;durP1;ratioP1;P2;durP2;ratioP2
20621;SDS011;10470;42.670;23.354;2023-04-25T00:00:31;4.20;;;3.90;;
20621;SDS011;10470;42.670;23.354;2023-04-25T00:02:57;4.77;;;4.10;;
20621;SDS011;10470;42.670;23.354;2023-04-25T00:05:24;4.27;;;3.97;;
20621;SDS011;10470;42.670;23.354;2023-04-25T00:07:49;5.07;;;4.17;;
20621;SDS011;10470;42.670;23.354;2023-04-25T00:10:15;4.73;;;4.07;;
20621;SDS011;10470;42.670;23.354;2023-04-25T00:12:40;5.60;;;4.27;;
20621;SDS011;10470;42.670;23.354;2023-04-25T00:15:07;6.13;;;4.90;;
20621;SDS011;10470;42.670;23.354;2023-04-25T00:17:32;5.50;;;4.87;;
20621;SDS011;10470;42.670;23.354;2023-04-25T00:19:59;5.33;;;4.83;;
20621;SDS011;10470;42.670;23.354;2023-04-25T00:22:25;5.53;;;4.77;;
20621;SDS011;10470;42.670;23.354;2023-04-25T00:24:51;5.80;;;4.93;;
20621;SDS011;10470;42.670;23.354;2023-04-25T00:27:18;6.90;;;5.23;;
20621;SDS011;10470;42.670;23.354;2023-04-25T00:29:43;7.63;;;5.37;;
20621;SDS011;10470;42.670;23.354;2023-04-25T00:32:09;6.13;;;5.53;;
20621;SDS011;10470;42.670;23.354;2023-04-25T00:34:35;6.10;;;5.20;;
20621;SDS011;10470;42.670;23.354;2023-04-25T00:37:01;6.97;;;5.83;;
20621;SDS011;10470;42.670;23.354;2023-04-25T00:39:29;6.50;;;5.50;;
20621;SDS011;10470;42.670;23.354;2023-04-25T00:41:55;8.63;;;5.63;;
20621;SDS011;10470;42.670;23.354;2023-04-25T00:44:21;5.93;;;5.33;;
20621;SDS011;10470;42.670;23.354;2023-04-25T00:46:48;7.63;;;5.70;;
20621;SDS011;10470;42.670;23.354;2023-04-25T00:49:16;6.47;;;5.77;;
20621;SDS011;10470;42.670;23.354;2023-04-25T00:51:42;6.97;;;5.70;;
20621;SDS011;10470;42.670;23.354;2023-04-25T00:54:10;6.97;;;5.67;;
20621;SDS011;10470;42.670;23.354;2023-04-25T00:56:37;6.13;;;5.50;;
20621;SDS011;10470;42.670;23.354;2023-04-25T00:59:03;6.60;;;5.37;;
20621;SDS011;10470;42.670;23.354;2023-04-25T01:01:28;6.07;;;5.23;;
20621;SDS011;10470;42.670;23.354;2023-04-25T01:03:54;6.13;;;4.87;;
20621;SDS011;10470;42.670;23.354;2023-04-25T01:06:21;6.33;;;4.57;;
20621;SDS011;10470;42.670;23.354;2023-04-25T01:08:47;4.73;;;4.20;;
20621;SDS011;10470;42.670;23.354;2023-04-25T01:11:12;4.90;;;4.40;;
20621;SDS011;10470;42.670;23.354;2023-04-25T01:13:38;6.23;;;5.50;;
20621;SDS011;10470;42.670;23.354;2023-04-25T01:16:04;5.80;;;5.17;;
20621;SDS011;10470;42.670;23.354;2023-04-25T01:18:29;6.67;;;5.50;;
20621;SDS011;10470;42.670;23.354;2023-04-25T01:20:55;6.40;;;5.47;;
20621;SDS011;10470;42.670;23.354;2023-04-25T01:23:23;6.33;;;5.60;;
20621;SDS011;10470;42.670;23.354;2023-04-25T01:25:49;6.70;;;6.00;;
20621;SDS011;10470;42.670;23.354;2023-04-25T01:28:14;5.57;;;5.07;;
20621;SDS011;10470;42.670;23.354;2023-04-25T01:30:40;5.67;;;5.00;;
20621;SDS011;10470;42.670;23.354;2023-04-25T01:33:06;5.30;;;4.80;;
20621;SDS011;10470;42.670;23.354;2023-04-25T01:35:33;6.37;;;4.97;;
20621;SDS011;10470;42.670;23.354;2023-04-25T01:37:58;6.93;;;5.17;;
20621;SDS011;10470;42.670;23.354;2023-04-25T01:40:24;6.23;;;4.90;;
20621;SDS011;10470;42.670;23.354;2023-04-25T01:42:50;6.33;;;4.87;;
20621;SDS011;10470;42.670;23.354;2023-04-25T01:45:16;6.27;;;5.30;;
20621;SDS011;10470;42.670;23.354;2023-04-25T01:47:42;6.27;;;5.13;;
20621;SDS011;10470;42.670;23.354;2023-04-25T01:50:11;5.80;;;4.90;;
20621;SDS011;10470;42.670;23.354;2023-04-25T01:52:37;5.37;;;4.87;;
20621;SDS011;10470;42.670;23.354;2023-04-25T01:55:02;5.33;;;4.83;;
20621;SDS011;10470;42.670;23.354;2023-04-25T01:57:28;6.57;;;5.37;;
20621;SDS011;10470;42.670;23.354;2023-04-25T01:59:58;7.30;;;5.00;;
20621;SDS011;10470;42.670;23.354;2023-04-25T02:02:25;5.90;;;5.17;;
20621;SDS011;10470;42.670;23.354;2023-04-25T02:04:51;5.63;;;4.37;;
20621;SDS011;10470;42.670;23.354;2023-04-25T02:07:16;4.80;;;4.40;;
20621;SDS011;10470;42.670;23.354;2023-04-25T02:09:42;4.97;;;4.17;;
20621;SDS011;10470;42.670;23.354;2023-04-25T02:12:09;6.17;;;4.60;;
20621;SDS011;10470;42.670;23.354;2023-04-25T02:14:35;6.70;;;4.17;;
20621;SDS011;10470;42.670;23.354;2023-04-25T02:17:01;4.97;;;4.40;;
20621;SDS011;10470;42.670;23.354;2023-04-25T02:19:26;6.13;;;4.40;;
20621;SDS011;10470;42.670;23.354;2023-04-25T02:21:51;6.20;;;4.73;;
20621;SDS011;10470;42.670;23.354;2023-04-25T02:24:17;5.70;;;4.90;;
20621;SDS011;10470;42.670;23.354;2023-04-25T02:26:42;5.57;;;4.97;;
20621;SDS011;10470;42.670;23.354;2023-04-25T02:29:09;5.83;;;4.33;;
20621;SDS011;10470;42.670;23.354;2023-04-25T02:31:35;5.83;;;5.10;;
20621;SDS011;10470;42.670;23.354;2023-04-25T02:34:01;5.63;;;4.67;;
20621;SDS011;10470;42.670;23.354;2023-04-25T02:36:26;5.90;;;4.57;;
20621;SDS011;10470;42.670;23.354;2023-04-25T02:38:52;5.73;;;5.13;;
20621;SDS011;10470;42.670;23.354;2023-04-25T02:41:18;6.27;;;5.67;;
20621;SDS011;10470;42.670;23.354;2023-04-25T02:43:43;5.73;;;5.13;;
20621;SDS011;10470;42.670;23.354;2023-04-25T02:46:09;7.40;;;5.70;;
20621;SDS011;10470;42.670;23.354;2023-04-25T02:48:34;9.13;;;6.10;;
20621;SDS011;10470;42.670;23.354;2023-04-25T02:51:00;7.10;;;6.30;;
20621;SDS011;10470;42.670;23.354;2023-04-25T02:53:25;10.07;;;6.60;;
20621;SDS011;10470;42.670;23.354;2023-04-25T02:55:50;8.03;;;6.53;;
20621;SDS011;10470;42.670;23.354;2023-04-25T02:58:17;7.63;;;6.20;;
20621;SDS011;10470;42.670;23.354;2023-04-25T03:00:43;8.03;;;6.10;;
20621;SDS011;10470;42.670;23.354;2023-04-25T03:03:08;8.10;;;6.53;;
20621;SDS011;10470;42.670;23.354;2023-04-25T03:05:34;7.63;;;6.30;;
20621;SDS011;10470;42.670;23.354;2023-04-25T03:07:59;10.30;;;7.00;;
20621;SDS011;10470;42.670;23.354;2023-04-25T03:10:24;9.80;;;6.27;;
20621;SDS011;10470;42.670;23.354;2023-04-25T03:12:50;7.70;;;6.77;;
20621;SDS011;10470;42.670;23.354;2023-04-25T03:15:15;7.70;;;6.37;;
20621;SDS011;10470;42.670;23.354;2023-04-25T03:17:41;8.77;;;7.07;;
20621;SDS011;10470;42.670;23.354;2023-04-25T03:20:07;9.17;;;7.40;;
20621;SDS011;10470;42.670;23.354;2023-04-25T03:22:33;10.73;;;7.00;;
20621;SDS011;10470;42.670;23.354;2023-04-25T03:24:59;7.93;;;6.30;;
20621;SDS011;10470;42.670;23.354;2023-04-25T03:27:24;9.10;;;7.27;;
20621;SDS011;10470;42.670;23.354;2023-04-25T03:29:49;8.13;;;6.67;;
20621;SDS011;10470;42.670;23.354;2023-04-25T03:32:15;8.93;;;6.57;;
20621;SDS011;10470;42.670;23.354;2023-04-25T03:34:40;10.37;;;6.93;;
20621;SDS011;10470;42.670;23.354;2023-04-25T03:37:06;6.90;;;6.10;;
20621;SDS011;10470;42.670;23.354;2023-04-25T03:39:31;7.63;;;6.67;;
20621;SDS011;10470;42.670;23.354;2023-04-25T03:41:57;9.10;;;6.93;;
20621;SDS011;10470;42.670;23.354;2023-04-25T03:44:23;8.83;;;7.47;;
20621;SDS011;10470;42.670;23.354;2023-04-25T03:46:49;9.33;;;7.13;;
20621;SDS011;10470;42.670;23.354;2023-04-25T03:49:14;9.53;;;7.20;;
20621;SDS011;10470;42.670;23.354;2023-04-25T03:51:41;8.50;;;7.20;;
20621;SDS011;10470;42.670;23.354;2023-04-25T03:54:06;9.33;;;7.87;;
20621;SDS011;10470;42.670;23.354;2023-04-25T03:56:32;9.13;;;7.73;;
20621;SDS011;10470;42.670;23.354;2023-04-25T03:58:58;14.50;;;10.97;;
20621;SDS011;10470;42.670;23.354;2023-04-25T04:01:23;20.70;;;16.07;;
20621;SDS011;10470;42.670;23.354;2023-04-25T04:03:49;10.90;;;9.47;;
20621;SDS011;10470;42.670;23.354;2023-04-25T04:06:14;9.30;;;7.70;;
20621;SDS011;10470;42.670;23.354;2023-04-25T04:08:40;9.87;;;7.63;;
20621;SDS011;10470;42.670;23.354;2023-04-25T04:11:05;11.77;;;8.23;;
20621;SDS011;10470;42.670;23.354;2023-04-25T04:13:31;10.47;;;8.60;;
20621;SDS011;10470;42.670;23.354;2023-04-25T04:15:56;11.73;;;9.00;;
20621;SDS011;10470;42.670;23.354;2023-04-25T04:18:23;11.60;;;8.90;;
20621;SDS011;10470;42.670;23.354;2023-04-25T04:20:48;10.50;;;8.00;;
20621;SDS011;10470;42.670;23.354;2023-04-25T04:23:14;11.97;;;10.07;;
20621;SDS011;10470;42.670;23.354;2023-04-25T04:25:40;12.10;;;9.40;;
20621;SDS011;10470;42.670;23.354;2023-04-25T04:28:07;11.23;;;8.77;;
20621;SDS011;10470;42.670;23.354;2023-04-25T04:30:32;10.13;;;8.23;;
20621;SDS011;10470;42.670;23.354;2023-04-25T04:33:01;10.37;;;8.90;;
20621;SDS011;10470;42.670;23.354;2023-04-25T04:35:27;9.47;;;7.80;;
20621;SDS011;10470;42.670;23.354;2023-04-25T04:37:53;9.43;;;7.50;;
20621;SDS011;10470;42.670;23.354;2023-04-25T04:40:19;7.90;;;7.10;;
20621;SDS011;10470;42.670;23.354;2023-04-25T04:42:45;7.30;;;6.60;;
20621;SDS011;10470;42.670;23.354;2023-04-25T04:45:11;9.03;;;6.90;;
20621;SDS011;10470;42.670;23.354;2023-04-25T04:47:38;9.07;;;6.83;;
20621;SDS011;10470;42.670;23.354;2023-04-25T04:50:07;7.83;;;6.97;;
20621;SDS011;10470;42.670;23.354;2023-04-25T04:52:37;8.80;;;7.87;;
20621;SDS011;10470;42.670;23.354;2023-04-25T04:55:04;8.73;;;7.83;;
20621;SDS011;10470;42.670;23.354;2023-04-25T04:57:33;10.43;;;8.37;;
20621;SDS011;10470;42.670;23.354;2023-04-25T04:59:59;9.77;;;8.33;;
20621;SDS011;10470;42.670;23.354;2023-04-25T05:02:25;10.37;;;8.80;;
20621;SDS011;10470;42.670;23.354;2023-04-25T05:04:51;12.57;;;9.70;;
20621;SDS011;10470;42.670;23.354;2023-04-25T05:07:17;13.50;;;10.17;;
20621;SDS011;10470;42.670;23.354;2023-04-25T05:09:43;14.07;;;10.70;;
20621;SDS011;10470;42.670;23.354;2023-04-25T05:12:08;16.83;;;11.53;;
20621;SDS011;10470;42.670;23.354;2023-04-25T05:14:34;14.73;;;11.57;;
20621;SDS011;10470;42.670;23.354;2023-04-25T05:16:59;15.27;;;12.13;;
20621;SDS011;10470;42.670;23.354;2023-04-25T05:19:25;17.40;;;12.47;;
20621;SDS011;10470;42.670;23.354;2023-04-25T05:21:51;15.77;;;12.30;;
20621;SDS011;10470;42.670;23.354;2023-04-25T05:24:17;14.10;;;11.57;;
20621;SDS011;10470;42.670;23.354;2023-04-25T05:26:42;14.83;;;11.23;;
20621;SDS011;10470;42.670;23.354;2023-04-25T05:29:07;15.20;;;11.63;;
20621;SDS011;10470;42.670;23.354;2023-04-25T05:31:33;14.10;;;11.30;;
20621;SDS011;10470;42.670;23.354;2023-04-25T05:33:59;13.63;;;10.20;;
20621;SDS011;10470;42.670;23.354;2023-04-25T05:36:25;13.50;;;9.23;;
20621;SDS011;10470;42.670;23.354;2023-04-25T05:38:51;12.90;;;9.30;;
20621;SDS011;10470;42.670;23.354;2023-04-25T05:41:16;12.07;;;9.50;;
20621;SDS011;10470;42.670;23.354;2023-04-25T05:43:41;14.53;;;10.53;;
20621;SDS011;10470;42.670;23.354;2023-04-25T05:46:12;15.13;;;11.00;;
20621;SDS011;10470;42.670;23.354;2023-04-25T05:48:37;14.17;;;10.23;;
20621;SDS011;10470;42.670;23.354;2023-04-25T05:51:03;31.63;;;12.40;;
20621;SDS011;10470;42.670;23.354;2023-04-25T05:53:29;12.63;;;8.83;;
20621;SDS011;10470;42.670;23.354;2023-04-25T05:55:54;10.27;;;8.40;;
20621;SDS011;10470;42.670;23.354;2023-04-25T05:58:20;9.27;;;7.90;;
20621;SDS011;10470;42.670;23.354;2023-04-25T06:00:45;10.40;;;8.20;;
20621;SDS011;10470;42.670;23.354;2023-04-25T06:03:11;9.10;;;7.37;;
20621;SDS011;10470;42.670;23.354;2023-04-25T06:05:39;11.10;;;7.70;;
20621;SDS011;10470;42.670;23.354;2023-04-25T06:08:06;8.87;;;7.40;;
20621;SDS011;10470;42.670;23.354;2023-04-25T06:10:31;8.53;;;7.50;;
20621;SDS011;10470;42.670;23.354;2023-04-25T06:12:57;9.33;;;7.10;;
20621;SDS011;10470;42.670;23.354;2023-04-25T06:15:22;7.73;;;6.93;;
20621;SDS011;10470;42.670;23.354;2023-04-25T06:17:47;9.80;;;7.53;;
20621;SDS011;10470;42.670;23.354;2023-04-25T06:20:13;9.70;;;7.90;;
20621;SDS011;10470;42.670;23.354;2023-04-25T06:22:39;7.63;;;5.90;;
20621;SDS011;10470;42.670;23.354;2023-04-25T06:25:04;8.57;;;5.80;;
20621;SDS011;10470;42.670;23.354;2023-04-25T06:27:32;6.33;;;5.70;;
20621;SDS011;10470;42.670;23.354;2023-04-25T06:29:58;8.37;;;6.77;;
20621;SDS011;10470;42.670;23.354;2023-04-25T06:32:23;7.83;;;6.43;;
20621;SDS011;10470;42.670;23.354;2023-04-25T06:34:49;7.93;;;6.60;;
20621;SDS011;10470;42.670;23.354;2023-04-25T06:37:15;6.87;;;6.17;;
20621;SDS011;10470;42.670;23.354;2023-04-25T06:39:41;8.17;;;6.10;;
20621;SDS011;10470;42.670;23.354;2023-04-25T06:42:06;11.57;;;6.67;;
20621;SDS011;10470;42.670;23.354;2023-04-25T06:44:31;11.90;;;7.27;;
20621;SDS011;10470;42.670;23.354;2023-04-25T06:46:57;16.00;;;7.80;;
20621;SDS011;10470;42.670;23.354;2023-04-25T06:49:22;8.40;;;7.30;;
20621;SDS011;10470;42.670;23.354;2023-04-25T06:51:48;8.77;;;6.60;;
20621;SDS011;10470;42.670;23.354;2023-04-25T06:54:13;9.03;;;6.97;;
20621;SDS011;10470;42.670;23.354;2023-04-25T06:56:38;9.53;;;6.37;;
20621;SDS011;10470;42.670;23.354;2023-04-25T06:59:04;8.33;;;6.23;;
20621;SDS011;10470;42.670;23.354;2023-04-25T07:01:29;8.40;;;6.53;;
20621;SDS011;10470;42.670;23.354;2023-04-25T07:03:55;11.03;;;7.00;;
20621;SDS011;10470;42.670;23.354;2023-04-25T07:06:21;6.67;;;5.97;;
20621;SDS011;10470;42.670;23.354;2023-04-25T07:08:46;8.23;;;5.60;;
20621;SDS011;10470;42.670;23.354;2023-04-25T07:11:11;8.97;;;6.00;;
20621;SDS011;10470;42.670;23.354;2023-04-25T07:13:37;8.00;;;6.67;;
20621;SDS011;10470;42.670;23.354;2023-04-25T07:16:02;6.73;;;6.03;;
20621;SDS011;10470;42.670;23.354;2023-04-25T07:18:28;8.77;;;6.57;;
20621;SDS011;10470;42.670;23.354;2023-04-25T07:20:54;7.67;;;6.50;;
20621;SDS011;10470;42.670;23.354;2023-04-25T07:23:20;7.47;;;6.67;;
20621;SDS011;10470;42.670;23.354;2023-04-25T07:25:45;9.33;;;6.47;;
20621;SDS011;10470;42.670;23.354;2023-04-25T07:28:11;7.27;;;6.27;;
20621;SDS011;10470;42.670;23.354;2023-04-25T07:30:36;7.63;;;6.43;;
20621;SDS011;10470;42.670;23.354;2023-04-25T07:33:02;7.87;;;6.53;;
20621;SDS011;10470;42.670;23.354;2023-04-25T07:35:27;11.13;;;7.10;;
20621;SDS011;10470;42.670;23.354;2023-04-25T07:37:53;7.27;;;6.50;;
20621;SDS011;10470;42.670;23.354;2023-04-25T07:40:18;8.87;;;6.43;;
20621;SDS011;10470;42.670;23.354;2023-04-25T07:42:44;7.63;;;6.17;;
20621;SDS011;10470;42.670;23.354;2023-04-25T07:45:09;6.50;;;5.47;;
20621;SDS011;10470;42.670;23.354;2023-04-25T07:47:35;6.50;;;5.90;;
20621;SDS011;10470;42.670;23.354;2023-04-25T07:50:01;6.97;;;5.37;;
20621;SDS011;10470;42.670;23.354;2023-04-25T07:52:28;6.10;;;5.50;;
20621;SDS011;10470;42.670;23.354;2023-04-25T07:54:53;9.40;;;6.00;;
20621;SDS011;10470;42.670;23.354;2023-04-25T07:57:19;6.70;;;5.53;;
20621;SDS011;10470;42.670;23.354;2023-04-25T07:59:45;9.23;;;6.33;;
20621;SDS011;10470;42.670;23.354;2023-04-25T08:02:10;8.20;;;5.90;;
20621;SDS011;10470;42.670;23.354;2023-04-25T08:04:36;7.67;;;5.97;;
20621;SDS011;10470;42.670;23.354;2023-04-25T08:07:01;6.50;;;5.40;;
20621;SDS011;10470;42.670;23.354;2023-04-25T08:09:27;8.27;;;5.13;;
20621;SDS011;10470;42.670;23.354;2023-04-25T08:11:52;6.40;;;5.80;;
20621;SDS011;10470;42.670;23.354;2023-04-25T08:14:18;7.70;;;5.17;;
20621;SDS011;10470;42.670;23.354;2023-04-25T08:16:43;5.80;;;5.20;;
20621;SDS011;10470;42.670;23.354;2023-04-25T08:19:09;5.27;;;4.73;;
20621;SDS011;10470;42.670;23.354;2023-04-25T08:21:36;5.77;;;4.70;;
20621;SDS011;10470;42.670;23.354;2023-04-25T08:24:01;8.93;;;5.10;;
20621;SDS011;10470;42.670;23.354;2023-04-25T08:26:27;7.03;;;4.40;;
20621;SDS011;10470;42.670;23.354;2023-04-25T08:28:53;7.03;;;4.80;;
20621;SDS011;10470;42.670;23.354;2023-04-25T08:31:19;8.27;;;4.90;;
20621;SDS011;10470;42.670;23.354;2023-04-25T08:33:44;5.20;;;4.40;;
20621;SDS011;10470;42.670;23.354;2023-04-25T08:36:10;5.53;;;3.50;;
20621;SDS011;10470;42.670;23.354;2023-04-25T08:38:36;6.33;;;4.20;;
20621;SDS011;10470;42.670;23.354;2023-04-25T08:41:01;5.53;;;4.40;;
20621;SDS011;10470;42.670;23.354;2023-04-25T08:43:27;8.47;;;5.77;;
20621;SDS011;10470;42.670;23.354;2023-04-25T08:45:57;11.97;;;6.87;;
20621;SDS011;10470;42.670;23.354;2023-04-25T08:48:28;16.07;;;9.23;;
20621;SDS011;10470;42.670;23.354;2023-04-25T08:50:56;9.20;;;6.60;;
20621;SDS011;10470;42.670;23.354;2023-04-25T08:53:30;11.17;;;5.93;;
20621;SDS011;10470;42.670;23.354;2023-04-25T08:55:58;9.77;;;6.90;;
20621;SDS011;10470;42.670;23.354;2023-04-25T08:58:24;9.23;;;7.17;;
20621;SDS011;10470;42.670;23.354;2023-04-25T09:00:50;9.47;;;8.23;;
20621;SDS011;10470;42.670;23.354;2023-04-25T09:03:17;13.77;;;8.00;;
20621;SDS011;10470;42.670;23.354;2023-04-25T09:05:43;9.97;;;8.60;;
20621;SDS011;10470;42.670;23.354;2023-04-25T09:08:08;9.67;;;8.30;;
20621;SDS011;10470;42.670;23.354;2023-04-25T09:10:34;10.87;;;8.10;;
20621;SDS011;10470;42.670;23.354;2023-04-25T09:13:10;7.87;;;6.33;;
20621;SDS011;10470;42.670;23.354;2023-04-25T09:15:47;5.70;;;4.73;;
20621;SDS011;10470;42.670;23.354;2023-04-25T09:18:24;4.07;;;3.67;;
20621;SDS011;10470;42.670;23.354;2023-04-25T09:20:51;6.33;;;5.27;;
20621;SDS011;10470;42.670;23.354;2023-04-25T09:23:21;6.60;;;5.17;;
20621;SDS011;10470;42.670;23.354;2023-04-25T09:25:48;8.07;;;5.40;;
20621;SDS011;10470;42.670;23.354;2023-04-25T09:28:15;6.90;;;4.97;;
20621;SDS011;10470;42.670;23.354;2023-04-25T09:30:41;6.60;;;5.00;;
20621;SDS011;10470;42.670;23.354;2023-04-25T09:33:08;7.83;;;5.17;;
20621;SDS011;10470;42.670;23.354;2023-04-25T09:35:35;5.63;;;4.93;;
20621;SDS011;10470;42.670;23.354;2023-04-25T09:38:06;6.47;;;5.43;;
20621;SDS011;10470;42.670;23.354;2023-04-25T09:40:39;7.60;;;6.57;;
20621;SDS011;10470;42.670;23.354;2023-04-25T09:43:23;8.73;;;6.77;;
20621;SDS011;10470;42.670;23.354;2023-04-25T09:45:50;8.27;;;6.13;;
20621;SDS011;10470;42.670;23.354;2023-04-25T09:48:24;9.80;;;6.20;;
20621;SDS011;10470;42.670;23.354;2023-04-25T09:51:03;9.00;;;5.67;;
20621;SDS011;10470;42.670;23.354;2023-04-25T09:53:32;6.47;;;5.43;;
20621;SDS011;10470;42.670;23.354;2023-04-25T09:56:04;8.13;;;5.27;;
20621;SDS011;10470;42.670;23.354;2023-04-25T09:58:32;9.03;;;6.10;;
20621;SDS011;10470;42.670;23.354;2023-04-25T10:00:59;11.27;;;6.13;;
20621;SDS011;10470;42.670;23.354;2023-04-25T10:03:28;6.20;;;5.53;;
20621;SDS011;10470;42.670;23.354;2023-04-25T10:05:56;8.27;;;5.67;;
20621;SDS011;10470;42.670;23.354;2023-04-25T10:08:24;7.63;;;5.97;;
20621;SDS011;10470;42.670;23.354;2023-04-25T10:10:52;7.77;;;6.40;;
20621;SDS011;10470;42.670;23.354;2023-04-25T10:13:17;7.73;;;5.53;;
20621;SDS011;10470;42.670;23.354;2023-04-25T10:15:43;6.50;;;5.30;;
20621;SDS011;10470;42.670;23.354;2023-04-25T10:18:10;5.30;;;4.57;;
20621;SDS011;10470;42.670;23.354;2023-04-25T10:20:36;7.10;;;5.43;;
20621;SDS011;10470;42.670;23.354;2023-04-25T10:23:07;6.40;;;5.80;;
20621;SDS011;10470;42.670;23.354;2023-04-25T10:25:40;2.90;;;2.50;;
20621;SDS011;10470;42.670;23.354;2023-04-25T10:28:06;1.17;;;1.10;;
20621;SDS011;10470;42.670;23.354;2023-04-25T10:30:32;2.53;;;2.27;;
20621;SDS011;10470;42.670;23.354;2023-04-25T10:32:58;2.10;;;1.90;;
20621;SDS011;10470;42.670;23.354;2023-04-25T10:35:28;3.50;;;1.70;;
20621;SDS011;10470;42.670;23.354;2023-04-25T10:37:59;1.73;;;1.30;;
20621;SDS011;10470;42.670;23.354;2023-04-25T10:40:24;1.33;;;1.20;;
20621;SDS011;10470;42.670;23.354;2023-04-25T10:42:53;1.27;;;1.17;;
20621;SDS011;10470;42.670;23.354;2023-04-25T10:45:20;1.60;;;1.50;;
20621;SDS011;10470;42.670;23.354;2023-04-25T10:47:45;1.40;;;1.30;;
20621;SDS011;10470;42.670;23.354;2023-04-25T10:50:11;1.97;;;1.50;;
20621;SDS011;10470;42.670;23.354;2023-04-25T10:52:41;2.33;;;1.40;;
20621;SDS011;10470;42.670;23.354;2023-04-25T10:55:07;2.17;;;1.20;;
20621;SDS011;10470;42.670;23.354;2023-04-25T10:57:40;3.30;;;1.30;;
20621;SDS011;10470;42.670;23.354;2023-04-25T11:00:13;2.00;;;1.20;;
20621;SDS011;10470;42.670;23.354;2023-04-25T11:02:44;2.47;;;1.20;;
20621;SDS011;10470;42.670;23.354;2023-04-25T11:05:32;1.73;;;1.20;;
20621;SDS011;10470;42.670;23.354;2023-04-25T11:07:59;2.30;;;1.50;;
20621;SDS011;10470;42.670;23.354;2023-04-25T11:10:26;2.30;;;1.60;;
20621;SDS011;10470;42.670;23.354;2023-04-25T11:12:52;4.77;;;2.00;;
20621;SDS011;10470;42.670;23.354;2023-04-25T11:15:17;1.73;;;1.53;;
20621;SDS011;10470;42.670;23.354;2023-04-25T11:17:43;1.47;;;1.27;;
20621;SDS011;10470;42.670;23.354;2023-04-25T11:20:11;3.27;;;1.50;;
20621;SDS011;10470;42.670;23.354;2023-04-25T11:22:40;3.23;;;2.03;;
20621;SDS011;10470;42.670;23.354;2023-04-25T11:25:06;3.83;;;2.10;;
20621;SDS011;10470;42.670;23.354;2023-04-25T11:27:54;4.50;;;2.17;;
20621;SDS011;10470;42.670;23.354;2023-04-25T11:30:22;2.63;;;2.07;;
20621;SDS011;10470;42.670;23.354;2023-04-25T11:32:49;2.43;;;2.23;;
20621;SDS011;10470;42.670;23.354;2023-04-25T11:35:15;5.10;;;2.13;;
20621;SDS011;10470;42.670;23.354;2023-04-25T11:37:41;3.67;;;2.93;;
20621;SDS011;10470;42.670;23.354;2023-04-25T11:40:08;4.77;;;2.50;;
20621;SDS011;10470;42.670;23.354;2023-04-25T11:42:38;4.47;;;2.43;;
20621;SDS011;10470;42.670;23.354;2023-04-25T11:45:05;2.17;;;1.80;;
20621;SDS011;10470;42.670;23.354;2023-04-25T11:47:31;2.63;;;2.03;;
20621;SDS011;10470;42.670;23.354;2023-04-25T11:49:58;6.07;;;2.97;;
20621;SDS011;10470;42.670;23.354;2023-04-25T11:52:24;3.43;;;1.40;;
20621;SDS011;10470;42.670;23.354;2023-04-25T11:55:00;3.47;;;1.63;;
20621;SDS011;10470;42.670;23.354;2023-04-25T11:57:25;3.93;;;1.60;;
20621;SDS011;10470;42.670;23.354;2023-04-25T11:59:51;2.30;;;1.50;;
20621;SDS011;10470;42.670;23.354;2023-04-25T12:02:25;3.27;;;1.27;;
20621;SDS011;10470;42.670;23.354;2023-04-25T12:04:51;2.17;;;1.30;;
20621;SDS011;10470;42.670;23.354;2023-04-25T12:07:17;1.40;;;1.00;;
20621;SDS011;10470;42.670;23.354;2023-04-25T12:09:51;5.83;;;2.17;;
20621;SDS011;10470;42.670;23.354;2023-04-25T12:12:16;1.03;;;1.00;;
20621;SDS011;10470;42.670;23.354;2023-04-25T12:14:45;1.80;;;0.90;;
20621;SDS011;10470;42.670;23.354;2023-04-25T12:17:16;0.97;;;0.80;;
20621;SDS011;10470;42.670;23.354;2023-04-25T12:19:42;1.87;;;0.80;;
20621;SDS011;10470;42.670;23.354;2023-04-25T12:22:22;0.90;;;0.90;;
20621;SDS011;10470;42.670;23.354;2023-04-25T12:24:49;2.23;;;1.20;;
20621;SDS011;10470;42.670;23.354;2023-04-25T12:27:15;1.10;;;1.00;;
20621;SDS011;10470;42.670;23.354;2023-04-25T12:29:49;1.23;;;0.90;;
20621;SDS011;10470;42.670;23.354;2023-04-25T12:32:16;0.70;;;0.70;;
20621;SDS011;10470;42.670;23.354;2023-04-25T12:34:42;0.87;;;0.80;;
20621;SDS011;10470;42.670;23.354;2023-04-25T12:37:08;1.40;;;1.27;;
20621;SDS011;10470;42.670;23.354;2023-04-25T12:39:34;1.30;;;1.00;;
20621;SDS011;10470;42.670;23.354;2023-04-25T12:41:59;2.47;;;1.50;;
20621;SDS011;10470;42.670;23.354;2023-04-25T12:44:26;3.70;;;1.10;;
20621;SDS011;10470;42.670;23.354;2023-04-25T12:46:51;1.90;;;1.20;;
20621;SDS011;10470;42.670;23.354;2023-04-25T12:49:17;2.63;;;1.33;;
20621;SDS011;10470;42.670;23.354;2023-04-25T12:51:43;2.47;;;1.10;;
20621;SDS011;10470;42.670;23.354;2023-04-25T12:54:08;2.00;;;1.30;;
20621;SDS011;10470;42.670;23.354;2023-04-25T12:56:34;1.60;;;1.50;;
20621;SDS011;10470;42.670;23.354;2023-04-25T12:59:01;2.63;;;1.10;;
20621;SDS011;10470;42.670;23.354;2023-04-25T13:01:28;2.50;;;1.30;;
20621;SDS011;10470;42.670;23.354;2023-04-25T13:03:54;2.03;;;1.20;;
20621;SDS011;10470;42.670;23.354;2023-04-25T13:06:19;4.70;;;1.50;;
20621;SDS011;10470;42.670;23.354;2023-04-25T13:08:45;2.23;;;1.23;;
20621;SDS011;10470;42.670;23.354;2023-04-25T13:11:11;3.53;;;1.30;;
20621;SDS011;10470;42.670;23.354;2023-04-25T13:13:37;3.50;;;1.30;;
20621;SDS011;10470;42.670;23.354;2023-04-25T13:16:06;2.20;;;1.30;;
20621;SDS011;10470;42.670;23.354;2023-04-25T13:18:32;1.90;;;1.50;;
20621;SDS011;10470;42.670;23.354;2023-04-25T13:20:58;4.77;;;1.57;;
20621;SDS011;10470;42.670;23.354;2023-04-25T13:23:27;2.87;;;1.43;;
20621;SDS011;10470;42.670;23.354;2023-04-25T13:25:54;1.60;;;1.33;;
20621;SDS011;10470;42.670;23.354;2023-04-25T13:28:20;1.70;;;1.40;;
20621;SDS011;10470;42.670;23.354;2023-04-25T13:30:46;1.77;;;1.63;;
20621;SDS011;10470;42.670;23.354;2023-04-25T13:33:13;4.83;;;2.03;;
20621;SDS011;10470;42.670;23.354;2023-04-25T13:35:38;4.67;;;2.57;;
20621;SDS011;10470;42.670;23.354;2023-04-25T13:38:05;3.17;;;2.10;;
20621;SDS011;10470;42.670;23.354;2023-04-25T13:40:30;3.30;;;2.17;;
20621;SDS011;10470;42.670;23.354;2023-04-25T13:42:56;3.07;;;2.00;;
20621;SDS011;10470;42.670;23.354;2023-04-25T13:45:22;5.20;;;2.13;;
20621;SDS011;10470;42.670;23.354;2023-04-25T13:47:48;2.40;;;2.20;;
20621;SDS011;10470;42.670;23.354;2023-04-25T13:50:13;4.00;;;1.93;;
20621;SDS011;10470;42.670;23.354;2023-04-25T13:52:40;2.53;;;2.20;;
20621;SDS011;10470;42.670;23.354;2023-04-25T13:55:06;4.07;;;2.50;;
20621;SDS011;10470;42.670;23.354;2023-04-25T13:57:33;8.30;;;3.70;;
20621;SDS011;10470;42.670;23.354;2023-04-25T13:59:59;3.17;;;2.17;;
20621;SDS011;10470;42.670;23.354;2023-04-25T14:02:29;3.57;;;2.67;;
20621;SDS011;10470;42.670;23.354;2023-04-25T14:04:55;3.60;;;2.07;;
20621;SDS011;10470;42.670;23.354;2023-04-25T14:07:21;3.47;;;2.20;;
20621;SDS011;10470;42.670;23.354;2023-04-25T14:09:46;2.80;;;2.30;;
20621;SDS011;10470;42.670;23.354;2023-04-25T14:12:11;4.70;;;2.30;;
20621;SDS011;10470;42.670;23.354;2023-04-25T14:14:37;3.37;;;2.50;;
20621;SDS011;10470;42.670;23.354;2023-04-25T14:17:03;1.53;;;1.43;;
20621;SDS011;10470;42.670;23.354;2023-04-25T14:19:28;2.37;;;1.70;;
20621;SDS011;10470;42.670;23.354;2023-04-25T14:21:54;2.70;;;1.40;;
20621;SDS011;10470;42.670;23.354;2023-04-25T14:24:20;1.87;;;1.00;;
20621;SDS011;10470;42.670;23.354;2023-04-25T14:26:45;1.00;;;0.90;;